createdAt,value
2023-05-14T00:01:08.552Z,20.73
2023-05-14T00:03:37.626Z,23.13
2023-05-14T00:06:06.249Z,29.00
2023-05-14T00:08:34.670Z,27.08
2023-05-14T00:11:03.148Z,26.88
2023-05-14T00:13:31.329Z,28.90
2023-05-14T00:15:59.629Z,28.40
2023-05-14T00:18:29.257Z,23.88
2023-05-14T00:20:57.580Z,26.83
2023-05-14T00:23:25.997Z,21.58
2023-05-14T00:25:54.383Z,23.25
2023-05-14T00:28:22.519Z,24.60
2023-05-14T00:30:50.841Z,27.65
2023-05-14T00:33:19.082Z,27.30
2023-05-14T00:35:48.736Z,28.48
2023-05-14T00:38:19.522Z,27.23
2023-05-14T00:40:51.993Z,30.02
2023-05-14T00:43:20.956Z,26.98
2023-05-14T00:45:51.132Z,29.65
2023-05-14T00:48:20.323Z,32.05
2023-05-14T00:50:51.033Z,27.58
2023-05-14T00:53:19.786Z,31.05
2023-05-14T00:55:49.916Z,32.63
2023-05-14T00:58:19.682Z,31.05
2023-05-14T01:00:48.222Z,27.33
2023-05-14T01:03:16.680Z,27.70
2023-05-14T01:05:58.366Z,31.23
2023-05-14T01:08:33.868Z,32.70
2023-05-14T01:11:08.226Z,34.60
2023-05-14T01:13:51.483Z,31.70
2023-05-14T01:16:21.015Z,32.15
2023-05-14T01:18:52.332Z,32.45
2023-05-14T01:21:35.336Z,27.75
2023-05-14T01:24:03.473Z,30.45
2023-05-14T01:26:32.500Z,30.02
2023-05-14T01:29:05.269Z,29.95
2023-05-14T01:31:36.124Z,34.47
2023-05-14T01:34:07.105Z,32.35
2023-05-14T01:36:37.292Z,31.45
2023-05-14T01:39:05.800Z,28.30
2023-05-14T01:41:34.687Z,35.33
2023-05-14T01:44:04.958Z,31.27
2023-05-14T01:46:33.458Z,32.20
2023-05-14T01:49:02.103Z,30.73
2023-05-14T01:51:30.384Z,36.03
2023-05-14T01:54:00.292Z,34.50
2023-05-14T01:56:28.497Z,37.15
2023-05-14T01:58:57.129Z,36.83
2023-05-14T02:01:26.343Z,34.30
2023-05-14T02:03:55.207Z,32.40
2023-05-14T02:06:23.502Z,34.88
2023-05-14T02:08:53.020Z,32.97
2023-05-14T02:11:22.625Z,35.45
2023-05-14T02:13:52.588Z,29.77
2023-05-14T02:16:21.160Z,34.33
2023-05-14T02:18:49.436Z,35.00
2023-05-14T02:25:26.100Z,33.92
2023-05-14T02:27:55.621Z,39.57
2023-05-14T02:30:24.157Z,35.28
2023-05-14T02:32:52.569Z,35.30
2023-05-14T02:35:22.907Z,34.03
2023-05-14T02:37:51.186Z,36.95
2023-05-14T02:40:19.320Z,35.35
2023-05-14T02:43:38.495Z,31.98
2023-05-14T02:46:08.159Z,30.07
2023-05-14T02:49:26.235Z,31.63
2023-05-14T02:51:55.029Z,25.55
2023-05-14T02:54:23.405Z,31.15
2023-05-14T02:56:51.638Z,31.38
2023-05-14T02:59:19.858Z,34.50
2023-05-14T03:01:49.769Z,31.73
2023-05-14T03:04:18.545Z,35.20
2023-05-14T03:06:46.633Z,34.38
2023-05-14T03:09:40.380Z,29.98
2023-05-14T03:12:09.277Z,31.58
2023-05-14T03:14:37.308Z,31.70
2023-05-14T03:17:07.348Z,27.40
2023-05-14T03:19:35.568Z,32.83
2023-05-14T03:22:04.045Z,28.57
2023-05-14T03:24:32.142Z,37.90
2023-05-14T03:27:00.185Z,31.53
2023-05-14T03:29:28.234Z,32.50
2023-05-14T03:31:56.422Z,30.52
2023-05-14T03:34:26.222Z,33.75
2023-05-14T03:36:54.408Z,31.83
2023-05-14T03:39:22.580Z,31.95
2023-05-14T03:41:50.832Z,31.73
2023-05-14T03:44:19.414Z,33.10
2023-05-14T03:46:47.590Z,27.93
2023-05-14T03:49:15.898Z,36.90
2023-05-14T03:51:45.482Z,29.27
2023-05-14T03:54:13.867Z,32.25
2023-05-14T03:56:42.026Z,28.20
2023-05-14T03:59:10.342Z,27.08
2023-05-14T04:01:38.567Z,29.60
2023-05-14T04:04:07.130Z,27.47
2023-05-14T04:06:36.361Z,30.00
2023-05-14T04:09:06.158Z,29.23
2023-05-14T04:11:34.332Z,28.37
2023-05-14T04:14:02.724Z,31.33
2023-05-14T04:16:31.462Z,28.57
2023-05-14T04:19:24.323Z,26.80
2023-05-14T04:21:52.523Z,30.50
2023-05-14T04:24:22.134Z,28.87
2023-05-14T04:26:50.202Z,26.23
2023-05-14T04:29:18.436Z,27.17
2023-05-14T04:31:46.828Z,29.07
2023-05-14T04:34:14.968Z,29.52
2023-05-14T04:36:43.210Z,27.57
2023-05-14T04:39:12.516Z,30.37
2023-05-14T04:41:42.802Z,26.57
2023-05-14T04:44:11.171Z,26.55
2023-05-14T04:46:39.447Z,25.77
2023-05-14T04:49:07.952Z,25.37
2023-05-14T04:51:36.190Z,27.60
2023-05-14T04:54:04.385Z,24.57
2023-05-14T04:56:32.568Z,27.63
2023-05-14T04:59:02.151Z,25.95
2023-05-14T05:01:30.624Z,23.70
2023-05-14T05:04:48.600Z,26.07
2023-05-14T05:07:16.687Z,26.20
2023-05-14T05:09:45.116Z,27.43
2023-05-14T05:12:13.530Z,27.63
2023-05-14T05:14:42.937Z,26.87
2023-05-14T05:17:11.042Z,25.47
2023-05-14T05:19:43.870Z,26.17
2023-05-14T05:22:37.656Z,27.43
2023-05-14T05:25:07.293Z,24.50
2023-05-14T05:27:35.644Z,27.17
2023-05-14T05:30:06.476Z,29.43
2023-05-14T05:32:34.857Z,31.05
2023-05-14T05:35:03.446Z,29.65
2023-05-14T05:37:31.816Z,28.03
2023-05-14T05:39:59.938Z,32.17
2023-05-14T05:42:28.176Z,29.50
2023-05-14T05:44:56.641Z,26.37
2023-05-14T05:47:26.356Z,31.97
2023-05-14T05:49:55.182Z,28.75
2023-05-14T05:52:23.411Z,31.63
2023-05-14T05:54:51.562Z,33.23
2023-05-14T05:57:19.755Z,32.55
2023-05-14T05:59:47.977Z,33.20
2023-05-14T06:02:16.198Z,30.63
2023-05-14T06:04:45.896Z,27.77
2023-05-14T06:07:14.023Z,28.20
2023-05-14T06:09:42.306Z,30.53
2023-05-14T06:12:11.206Z,30.10
2023-05-14T06:14:39.271Z,31.23
2023-05-14T06:17:07.750Z,31.93
2023-05-14T06:19:36.422Z,31.37
2023-05-14T06:22:06.455Z,27.83
2023-05-14T06:24:35.047Z,31.55
2023-05-14T06:27:03.516Z,30.93
2023-05-14T06:29:37.820Z,31.63
2023-05-14T06:32:06.693Z,30.93
2023-05-14T06:34:37.559Z,33.20
2023-05-14T06:37:11.719Z,29.60
2023-05-14T06:39:40.374Z,28.25
2023-05-14T06:42:08.712Z,31.00
2023-05-14T06:44:37.397Z,30.80
2023-05-14T06:47:08.544Z,31.50
2023-05-14T06:49:37.138Z,27.85
2023-05-14T06:52:06.606Z,31.95
2023-05-14T06:54:36.240Z,30.17
2023-05-14T06:57:04.946Z,28.48
2023-05-14T06:59:33.368Z,29.57
2023-05-14T07:02:01.439Z,31.67
2023-05-14T07:04:29.667Z,31.10
2023-05-14T07:06:57.826Z,30.15
2023-05-14T07:09:26.098Z,32.37
2023-05-14T07:11:55.627Z,28.50
2023-05-14T07:14:23.800Z,32.10
2023-05-14T07:16:51.945Z,25.35
2023-05-14T07:19:20.162Z,27.00
2023-05-14T07:21:48.510Z,28.87
2023-05-14T07:24:17.065Z,31.08
2023-05-14T07:27:12.572Z,35.17
2023-05-14T07:29:40.698Z,30.25
2023-05-14T07:32:08.813Z,32.88
2023-05-14T07:34:37.190Z,28.83
2023-05-14T07:37:05.903Z,31.03
2023-05-14T07:39:34.096Z,28.13
2023-05-14T07:42:02.782Z,36.85
2023-05-14T07:44:32.440Z,28.00
2023-05-14T07:47:00.873Z,30.33
2023-05-14T07:49:29.029Z,33.88
2023-05-14T07:51:57.269Z,32.95
2023-05-14T07:54:25.554Z,31.80
2023-05-14T07:56:54.050Z,31.52
2023-05-14T07:59:22.198Z,30.15
2023-05-14T08:01:51.706Z,30.73
2023-05-14T08:04:20.057Z,38.38
2023-05-14T08:06:48.241Z,32.45
2023-05-14T08:09:16.585Z,33.25
2023-05-14T08:11:44.897Z,28.92
2023-05-14T08:14:13.065Z,33.05
2023-05-14T08:16:41.119Z,32.80
2023-05-14T08:19:10.623Z,33.00
2023-05-14T08:21:39.029Z,30.85
2023-05-14T08:24:07.750Z,33.80
2023-05-14T08:26:36.018Z,30.48
2023-05-14T08:29:04.179Z,31.30
2023-05-14T08:31:32.398Z,30.25
2023-05-14T08:34:00.664Z,34.58
2023-05-14T08:36:30.148Z,27.92
2023-05-14T08:38:58.291Z,28.35
2023-05-14T08:41:26.679Z,27.50
2023-05-14T08:44:02.255Z,28.08
2023-05-14T08:46:32.020Z,29.77
2023-05-14T08:49:10.699Z,29.58
2023-05-14T08:51:41.014Z,28.42
2023-05-14T08:54:09.268Z,26.45
2023-05-14T08:56:39.575Z,24.75
2023-05-14T08:59:07.885Z,25.65
2023-05-14T09:01:36.527Z,28.20
2023-05-14T09:04:08.562Z,22.95
2023-05-14T09:06:37.950Z,26.35
2023-05-14T09:09:07.799Z,25.15
2023-05-14T09:11:35.979Z,24.23
2023-05-14T09:14:04.367Z,24.60
2023-05-14T09:16:58.111Z,26.33
2023-05-14T09:19:27.229Z,24.02
2023-05-14T09:24:21.334Z,25.92
2023-05-14T09:26:52.749Z,22.25
2023-05-14T09:29:21.031Z,25.48
2023-05-14T09:31:51.663Z,21.50
2023-05-14T09:34:27.207Z,22.65
2023-05-14T09:36:59.090Z,24.05
2023-05-14T09:39:29.292Z,22.63
2023-05-14T09:41:58.162Z,24.13
2023-05-14T09:44:26.885Z,24.33
2023-05-14T09:46:55.647Z,26.67
2023-05-14T09:49:23.879Z,24.05
2023-05-14T09:51:52.393Z,22.00
2023-05-14T09:54:20.502Z,25.25
2023-05-14T09:56:50.170Z,25.65
2023-05-14T09:59:18.278Z,27.63
2023-05-14T10:01:47.000Z,24.52
2023-05-14T10:04:16.154Z,25.50
2023-05-14T10:06:48.417Z,24.20
2023-05-14T10:09:22.214Z,24.38
2023-05-14T10:11:55.953Z,27.17
2023-05-14T10:14:28.072Z,24.10
2023-05-14T10:17:00.212Z,26.55
2023-05-14T10:19:31.035Z,22.98
2023-05-14T10:24:34.494Z,25.75
2023-05-14T10:27:04.525Z,24.63
2023-05-14T10:29:35.017Z,21.80
2023-05-14T10:32:06.152Z,27.27
2023-05-14T10:34:38.669Z,26.13
2023-05-14T10:37:32.494Z,27.15
2023-05-14T10:40:03.835Z,24.92
2023-05-14T10:42:37.589Z,25.23
2023-05-14T10:45:08.713Z,25.30
2023-05-14T10:47:38.816Z,24.27
2023-05-14T10:50:09.648Z,25.23
2023-05-14T10:52:38.242Z,22.50
2023-05-14T10:55:08.222Z,24.92
2023-05-14T10:57:39.417Z,23.45
2023-05-14T11:00:10.862Z,23.42
2023-05-14T11:02:40.998Z,22.95
2023-05-14T11:05:11.647Z,23.20
2023-05-14T11:07:41.219Z,22.23
2023-05-14T11:10:11.652Z,24.30
2023-05-14T11:12:43.310Z,23.77
2023-05-14T11:15:13.228Z,22.23
2023-05-14T11:17:43.777Z,20.75
2023-05-14T11:20:14.168Z,21.08
2023-05-14T11:22:43.774Z,22.65
2023-05-14T11:25:14.856Z,23.13
2023-05-14T11:27:46.706Z,21.60
2023-05-14T11:30:17.223Z,24.00
2023-05-14T11:32:47.139Z,20.65
2023-05-14T11:35:17.165Z,20.08
2023-05-14T11:37:52.221Z,23.05
2023-05-14T11:40:20.830Z,22.15
2023-05-14T11:42:52.328Z,21.98
2023-05-14T11:45:26.840Z,21.52
2023-05-14T11:47:55.224Z,20.40
2023-05-14T11:50:23.952Z,20.25
2023-05-14T11:52:52.647Z,20.13
2023-05-14T11:55:21.069Z,20.42
2023-05-14T11:57:51.315Z,23.90
2023-05-14T12:00:23.301Z,19.55
2023-05-14T12:02:51.972Z,19.20
2023-05-14T12:05:20.608Z,18.25
2023-05-14T12:07:49.072Z,19.08
2023-05-14T12:10:17.365Z,20.35
2023-05-14T12:12:48.237Z,16.33
2023-05-14T12:15:18.261Z,16.98
2023-05-14T12:17:51.958Z,21.17
2023-05-14T12:20:20.436Z,18.77
2023-05-14T12:22:48.879Z,17.40
2023-05-14T12:25:17.274Z,17.00
2023-05-14T12:27:46.444Z,20.60
2023-05-14T12:32:49.194Z,18.10
2023-05-14T12:35:17.765Z,18.40
2023-05-14T12:37:46.142Z,19.00
2023-05-14T12:40:14.605Z,23.13
2023-05-14T12:42:42.727Z,23.95
2023-05-14T12:45:12.358Z,18.77
2023-05-14T12:47:45.606Z,15.60
2023-05-14T12:50:15.394Z,17.90
2023-05-14T12:52:43.544Z,21.10
2023-05-14T12:55:11.880Z,17.35
2023-05-14T12:57:40.467Z,13.98
2023-05-14T13:00:13.985Z,18.77
2023-05-14T13:02:43.885Z,18.55
2023-05-14T13:05:12.851Z,20.33
2023-05-14T13:07:42.876Z,16.50
2023-05-14T13:10:12.093Z,17.20
2023-05-14T13:12:40.560Z,20.13
2023-05-14T13:15:10.190Z,17.77
2023-05-14T13:17:38.588Z,15.90
2023-05-14T13:20:08.407Z,17.45
2023-05-14T13:22:36.693Z,17.23
2023-05-14T13:25:07.599Z,19.95
2023-05-14T13:27:37.052Z,18.83
2023-05-14T13:30:06.075Z,17.45
2023-05-14T13:32:34.842Z,17.60
2023-05-14T13:35:03.498Z,17.05
2023-05-14T13:37:31.993Z,18.77
2023-05-14T13:40:00.438Z,16.95
2023-05-14T13:42:30.195Z,17.70
2023-05-14T13:45:00.376Z,25.43
2023-05-14T13:47:28.911Z,17.83
2023-05-14T13:49:57.578Z,16.10
2023-05-14T13:52:26.632Z,17.88
2023-05-14T13:55:47.846Z,20.40
2023-05-14T13:58:18.826Z,26.20
2023-05-14T14:00:46.986Z,19.48
2023-05-14T14:03:15.172Z,16.95
2023-05-14T14:05:43.452Z,15.32
2023-05-14T14:08:22.730Z,18.08
2023-05-14T14:10:52.286Z,11.57
2023-05-14T14:13:25.450Z,10.55
2023-05-14T14:15:53.944Z,9.80
2023-05-14T14:18:22.587Z,11.23
2023-05-14T14:20:53.350Z,11.18
2023-05-14T14:25:50.417Z,14.55
2023-05-14T14:28:19.637Z,14.10
2023-05-14T14:30:51.768Z,11.70
2023-05-14T14:33:20.983Z,13.10
2023-05-14T14:35:49.463Z,13.15
2023-05-14T14:38:17.844Z,15.05
2023-05-14T14:40:47.047Z,11.63
2023-05-14T14:43:15.754Z,12.60
2023-05-14T14:45:48.174Z,10.27
2023-05-14T14:48:31.017Z,9.57
2023-05-14T14:51:00.205Z,11.52
2023-05-14T14:53:28.781Z,9.90
2023-05-14T14:55:57.267Z,10.30
2023-05-14T14:58:26.352Z,15.52
2023-05-14T15:00:56.415Z,11.48
2023-05-14T15:03:26.742Z,10.30
2023-05-14T15:08:27.657Z,10.10
2023-05-14T15:10:56.280Z,9.38
2023-05-14T15:13:25.857Z,12.57
2023-05-14T15:15:54.027Z,11.13
2023-05-14T15:18:22.331Z,11.68
2023-05-14T15:20:52.861Z,14.88
2023-05-14T15:23:22.122Z,12.40
2023-05-14T15:25:50.774Z,20.77
2023-05-14T15:28:19.313Z,13.52
2023-05-14T15:30:49.264Z,13.57
2023-05-14T15:33:19.573Z,13.98
2023-05-14T15:35:48.346Z,14.25
2023-05-14T15:38:18.256Z,15.00
2023-05-14T15:40:46.826Z,13.98
2023-05-14T15:43:15.288Z,16.40
2023-05-14T15:45:45.617Z,15.38
2023-05-14T15:48:14.101Z,15.85
2023-05-14T15:50:43.534Z,14.07
2023-05-14T15:53:11.874Z,13.65
2023-05-14T15:55:41.999Z,14.00
2023-05-14T15:58:10.894Z,14.35
2023-05-14T16:00:39.922Z,16.65
2023-05-14T16:03:08.636Z,17.38
2023-05-14T16:05:38.097Z,16.63
2023-05-14T16:08:07.190Z,15.85
2023-05-14T16:10:36.395Z,13.60
2023-05-14T16:13:06.823Z,13.63
2023-05-14T16:15:45.817Z,14.70
2023-05-14T16:18:21.944Z,12.15
2023-05-14T16:20:52.488Z,13.18
2023-05-14T16:23:21.477Z,14.52
2023-05-14T16:25:51.410Z,14.50
2023-05-14T16:28:21.193Z,15.85
2023-05-14T16:30:49.607Z,19.08
2023-05-14T16:33:18.376Z,14.32
2023-05-14T16:35:46.774Z,13.77
2023-05-14T16:42:59.094Z,16.25
2023-05-14T16:45:28.701Z,14.93
2023-05-14T16:47:56.916Z,15.35
2023-05-14T16:50:25.013Z,16.30
2023-05-14T16:52:53.360Z,20.38
2023-05-14T16:55:21.758Z,15.60
2023-05-14T16:57:50.119Z,14.48
2023-05-14T17:00:18.735Z,14.13
2023-05-14T17:02:49.845Z,12.35
2023-05-14T17:05:18.605Z,12.93
2023-05-14T17:07:47.132Z,12.07
2023-05-14T17:10:15.847Z,10.25
2023-05-14T17:12:44.410Z,8.77
2023-05-14T17:15:13.392Z,11.93
2023-05-14T17:17:42.013Z,11.05
2023-05-14T17:20:15.932Z,8.38
2023-05-14T17:22:45.283Z,8.88
2023-05-14T17:25:14.686Z,9.00
2023-05-14T17:27:42.934Z,7.93
2023-05-14T17:30:11.879Z,9.02
2023-05-14T17:32:40.235Z,9.85
2023-05-14T17:35:09.762Z,9.88
2023-05-14T17:37:39.468Z,12.98
2023-05-14T17:40:09.065Z,9.43
2023-05-14T17:42:37.548Z,9.43
2023-05-14T17:45:06.960Z,9.50
2023-05-14T17:47:35.576Z,12.63
2023-05-14T17:50:04.211Z,12.98
2023-05-14T17:52:32.806Z,15.13
2023-05-14T17:55:02.869Z,18.77
2023-05-14T17:57:31.522Z,21.00
2023-05-14T17:59:59.825Z,13.55
2023-05-14T18:02:28.931Z,21.65
2023-05-14T18:04:57.554Z,18.48
2023-05-14T18:07:25.985Z,14.27
2023-05-14T18:09:54.187Z,10.85
2023-05-14T18:12:25.012Z,11.50
2023-05-14T18:14:53.241Z,14.05
2023-05-14T18:17:21.771Z,13.27
2023-05-14T18:19:50.006Z,11.32
2023-05-14T18:22:18.256Z,15.52
2023-05-14T18:24:46.557Z,17.08
2023-05-14T18:27:15.204Z,11.90
2023-05-14T18:29:45.016Z,13.68
2023-05-14T18:32:13.596Z,12.95
2023-05-14T18:34:42.175Z,11.70
2023-05-14T18:37:10.705Z,15.43
2023-05-14T18:39:39.152Z,10.45
2023-05-14T18:42:08.258Z,21.15
2023-05-14T18:44:36.943Z,6.00
2023-05-14T18:47:07.046Z,8.93
2023-05-14T18:49:35.733Z,14.02
2023-05-14T18:52:04.099Z,11.38
2023-05-14T18:54:32.442Z,11.10
2023-05-14T18:57:01.437Z,9.32
2023-05-14T18:59:30.463Z,6.93
2023-05-14T19:02:02.385Z,9.60
2023-05-14T19:04:47.787Z,8.73
2023-05-14T19:07:16.508Z,6.75
2023-05-14T19:09:44.826Z,7.05
2023-05-14T19:12:13.243Z,17.15
2023-05-14T19:14:41.460Z,13.32
2023-05-14T19:17:10.135Z,13.88
2023-05-14T19:19:40.455Z,10.98
2023-05-14T19:22:08.907Z,10.05
2023-05-14T19:24:37.844Z,8.88
2023-05-14T19:27:06.721Z,11.63
2023-05-14T19:29:36.852Z,12.95
2023-05-14T19:32:06.124Z,17.27
2023-05-14T19:34:34.612Z,12.57
2023-05-14T19:37:05.138Z,8.25
2023-05-14T19:39:33.613Z,9.60
2023-05-14T19:42:02.100Z,11.93
2023-05-14T19:44:30.959Z,6.70
2023-05-14T19:46:59.404Z,5.22
2023-05-14T19:49:28.134Z,6.28
2023-05-14T19:51:56.525Z,5.43
2023-05-14T19:54:26.465Z,8.13
2023-05-14T19:56:55.155Z,5.75
2023-05-14T19:59:24.969Z,4.38
2023-05-14T20:01:54.910Z,4.68
2023-05-14T20:04:23.440Z,5.35
2023-05-14T20:06:52.736Z,4.55
2023-05-14T20:09:21.405Z,5.75
2023-05-14T20:11:51.433Z,6.22
2023-05-14T20:14:19.560Z,10.47
2023-05-14T20:16:51.453Z,6.32
2023-05-14T20:19:21.405Z,7.65
2023-05-14T20:21:50.043Z,9.50
2023-05-14T20:24:18.362Z,4.78
2023-05-14T20:26:46.709Z,8.20
2023-05-14T20:29:16.412Z,3.42
2023-05-14T20:31:44.785Z,3.90
2023-05-14T20:34:12.979Z,3.72
2023-05-14T20:36:41.883Z,4.53
2023-05-14T20:39:11.279Z,2.92
2023-05-14T20:41:39.537Z,6.22
2023-05-14T20:44:07.930Z,4.68
2023-05-14T20:46:38.171Z,3.45
2023-05-14T20:49:06.522Z,4.85
2023-05-14T20:51:34.975Z,3.45
2023-05-14T20:54:03.552Z,6.40
2023-05-14T20:56:32.051Z,5.78
2023-05-14T20:59:00.329Z,6.03
2023-05-14T21:01:37.685Z,3.25
2023-05-14T21:04:08.359Z,4.07
2023-05-14T21:06:36.740Z,6.20
2023-05-14T21:09:05.375Z,3.15
2023-05-14T21:11:33.852Z,3.03
2023-05-14T21:14:02.058Z,3.00
2023-05-14T21:16:33.395Z,3.03
2023-05-14T21:19:01.568Z,3.13
2023-05-14T21:21:31.355Z,5.30
2023-05-14T21:23:59.390Z,4.70
2023-05-14T21:26:27.632Z,4.82
2023-05-14T21:28:55.777Z,4.30
2023-05-14T21:31:23.952Z,4.00
2023-05-14T21:33:52.324Z,4.93
2023-05-14T21:36:21.220Z,2.97
2023-05-14T21:38:50.765Z,4.93
2023-05-14T21:41:19.089Z,2.67
2023-05-14T21:43:47.464Z,4.53
2023-05-14T21:46:16.394Z,4.43
2023-05-14T21:48:44.851Z,6.72
2023-05-14T21:51:13.459Z,2.60
2023-05-14T21:53:41.538Z,3.45
2023-05-14T21:56:11.247Z,5.32
2023-05-14T21:58:39.468Z,3.05
2023-05-14T22:01:09.051Z,4.68
2023-05-14T22:03:37.410Z,2.40
2023-05-14T22:06:06.594Z,4.97
2023-05-14T22:08:34.733Z,3.15
2023-05-14T22:11:03.068Z,4.72
2023-05-14T22:13:32.828Z,3.60
2023-05-14T22:16:12.001Z,4.65
2023-05-14T22:18:41.941Z,2.95
2023-05-14T22:21:10.538Z,2.67
2023-05-14T22:23:38.848Z,5.95
2023-05-14T22:26:07.231Z,3.25
2023-05-14T22:28:39.818Z,4.95
2023-05-14T22:31:08.163Z,3.97
2023-05-14T22:33:37.231Z,3.97
2023-05-14T22:36:07.038Z,2.50
2023-05-14T22:38:35.913Z,3.67
2023-05-14T22:41:04.015Z,4.65
2023-05-14T22:43:32.635Z,2.83
2023-05-14T22:46:02.347Z,4.28
2023-05-14T22:48:30.617Z,2.90
2023-05-14T22:50:58.792Z,2.92
2023-05-14T22:53:27.227Z,2.13
2023-05-14T22:55:55.674Z,2.47
2023-05-14T22:58:23.985Z,2.22
2023-05-14T23:00:52.303Z,3.88
2023-05-14T23:03:22.062Z,5.88
2023-05-14T23:05:50.354Z,3.45
2023-05-14T23:08:18.471Z,3.50
2023-05-14T23:10:46.658Z,2.78
2023-05-14T23:13:14.813Z,3.08
2023-05-14T23:15:44.087Z,2.67
2023-05-14T23:18:12.440Z,2.30
2023-05-14T23:20:42.128Z,2.78
2023-05-14T23:23:10.219Z,2.65
2023-05-14T23:25:38.304Z,3.15
2023-05-14T23:28:06.464Z,3.55
2023-05-14T23:30:34.716Z,3.38
2023-05-14T23:33:02.945Z,2.45
2023-05-14T23:35:33.795Z,2.50
2023-05-14T23:38:03.437Z,2.53
2023-05-14T23:40:31.716Z,2.85
2023-05-14T23:43:00.526Z,4.15
2023-05-14T23:45:29.069Z,3.38
2023-05-14T23:47:59.093Z,3.47
2023-05-14T23:50:27.363Z,3.67
2023-05-14T23:52:56.395Z,2.70
2023-05-14T23:55:26.289Z,4.20
2023-05-14T23:57:54.972Z,4.68
